Time;durP1;ratioP1;P1;durP2;ratioP2;P2;SDS_P1;SDS_P2;PMS_P1;PMS_P2;Temp;Humidity;BMP_temperature;BMP_pressure;BME280_temperature;BME280_humidity;BME280_pressure;Samples;Min_cycle;Max_cycle;Signal;HPM_P1;HPM_P2
2022/01/21 00:01:38;;;;;;;14.77;2.35;;;1.50;99.90;;;;;;5040573;28;20045;-65
2022/01/21 00:04:05;;;;;;;12.85;2.25;;;1.50;99.90;;;;;;5037254;28;20477;-65
2022/01/21 00:06:31;;;;;;;18.17;2.40;;;1.50;99.90;;;;;;5037433;28;20477;-65
2022/01/21 00:08:57;;;;;;;17.20;2.17;;;1.50;99.90;;;;;;5038662;28;20048;-65
2022/01/21 00:11:24;;;;;;;18.17;2.80;;;1.50;99.90;;;;;;5038173;28;20121;-65
2022/01/21 00:13:51;;;;;;;15.05;2.63;;;1.50;99.90;;;;;;5039838;28;20084;-65
2022/01/21 00:16:19;;;;;;;18.38;2.80;;;1.60;99.90;;;;;;5041724;28;20036;-65
2022/01/21 00:18:56;;;;;;;19.38;2.20;;;1.60;99.90;;;;;;5038675;28;20122;-65
2022/01/21 00:32:35;;;;;;;15.85;2.28;;;1.90;99.90;;;;;;5039821;28;20053;-65
2022/01/21 00:35:01;;;;;;;15.93;1.95;;;2.00;99.90;;;;;;5042159;28;20085;-65
2022/01/21 00:37:27;;;;;;;20.17;2.17;;;2.10;99.90;;;;;;5031199;28;20104;-65
2022/01/21 00:39:56;;;;;;;15.25;1.70;;;2.10;99.90;;;;;;5034649;28;20079;-65
2022/01/21 00:44:59;;;;;;;16.73;2.10;;;2.10;99.90;;;;;;5036991;28;20401;-65
2022/01/21 00:47:25;;;;;;;7.88;1.45;;;2.10;99.90;;;;;;5035961;28;20080;-65
2022/01/21 00:49:51;;;;;;;11.43;1.95;;;2.10;99.90;;;;;;5036762;28;20037;-65
2022/01/21 00:52:17;;;;;;;11.63;2.05;;;2.00;99.90;;;;;;5041429;28;20406;-65
2022/01/21 00:54:42;;;;;;;10.80;2.03;;;2.00;99.90;;;;;;5039451;28;20116;-65
2022/01/21 00:57:08;;;;;;;10.43;1.15;;;2.00;99.90;;;;;;5039837;28;20467;-65
2022/01/21 00:59:34;;;;;;;9.23;1.33;;;1.90;99.90;;;;;;5038567;28;20117;-65
2022/01/21 01:02:00;;;;;;;16.90;1.70;;;1.90;99.90;;;;;;5044868;28;20120;-65
2022/01/21 01:04:26;;;;;;;9.52;1.38;;;1.90;99.90;;;;;;5042587;28;20429;-65
2022/01/21 01:06:51;;;;;;;11.45;1.88;;;1.90;99.90;;;;;;5041446;28;20044;-65
2022/01/21 01:09:17;;;;;;;9.60;1.50;;;1.90;99.90;;;;;;5041753;28;20033;-65
2022/01/21 01:20:03;;;;;;;14.27;2.00;;;1.90;99.90;;;;;;5038015;28;20107;-65
2022/01/21 01:27:47;;;;;;;9.73;1.17;;;1.90;99.90;;;;;;5038793;28;20520;-65
2022/01/21 01:30:15;;;;;;;10.55;1.30;;;1.80;99.90;;;;;;5041557;28;20029;-65
2022/01/21 01:32:43;;;;;;;13.68;2.13;;;1.80;99.90;;;;;;5037141;28;20056;-65
2022/01/21 01:35:13;;;;;;;12.25;1.38;;;1.90;99.90;;;;;;5041840;28;20136;-65
2022/01/21 01:50:49;;;;;;;13.02;1.33;;;2.00;99.90;;;;;;5036707;28;20057;-65
2022/01/21 01:53:17;;;;;;;13.93;1.45;;;2.00;99.90;;;;;;5042969;28;20117;-66
2022/01/21 01:55:44;;;;;;;10.90;1.80;;;2.00;99.90;;;;;;5044833;28;20045;-65
2022/01/21 01:58:14;;;;;;;16.73;1.30;;;2.00;99.90;;;;;;5040498;28;20088;-65
2022/01/21 02:00:41;;;;;;;14.95;2.05;;;2.00;99.90;;;;;;5044118;28;20099;-65
2022/01/21 02:03:09;;;;;;;8.80;1.05;;;2.10;99.90;;;;;;5040961;28;20044;-65
2022/01/21 02:05:35;;;;;;;15.02;1.83;;;2.10;99.90;;;;;;5044807;28;20033;-65
2022/01/21 02:08:01;;;;;;;12.60;1.48;;;2.20;99.90;;;;;;5040174;28;20558;-65
2022/01/21 02:10:27;;;;;;;8.85;1.25;;;2.20;99.90;;;;;;5039112;28;20044;-65
2022/01/21 02:13:05;;;;;;;8.02;1.02;;;2.30;99.90;;;;;;5039154;28;20399;-65
2022/01/21 02:15:34;;;;;;;9.57;1.05;;;2.30;99.90;;;;;;5042294;28;20033;-65
2022/01/21 02:23:29;;;;;;;10.00;1.00;;;2.30;99.90;;;;;;5044899;28;20068;-65
2022/01/21 02:25:55;;;;;;;9.00;1.23;;;2.20;99.90;;;;;;5038491;28;20292;-65
2022/01/21 02:28:20;;;;;;;8.57;1.20;;;2.10;99.90;;;;;;5037938;28;20049;-65
2022/01/21 02:30:56;;;;;;;11.05;0.93;;;2.10;99.90;;;;;;5042168;28;20040;-65
2022/01/21 02:33:23;;;;;;;11.82;1.40;;;2.00;99.90;;;;;;5039560;28;20031;-65
2022/01/21 02:35:49;;;;;;;10.25;1.25;;;2.00;99.90;;;;;;5042958;28;20507;-65
2022/01/21 02:38:16;;;;;;;7.10;1.10;;;1.90;99.90;;;;;;5036797;28;20037;-65
2022/01/21 02:40:42;;;;;;;10.52;1.00;;;1.90;99.90;;;;;;5037571;28;20045;-65
2022/01/21 02:43:08;;;;;;;10.25;1.10;;;1.90;99.90;;;;;;5042185;28;20039;-65
2022/01/21 02:45:36;;;;;;;9.00;1.50;;;1.90;99.90;;;;;;5042654;28;20032;-64
2022/01/21 02:48:04;;;;;;;13.48;2.65;;;2.00;99.90;;;;;;5040222;28;20041;-64
2022/01/21 02:50:30;;;;;;;10.55;1.40;;;2.00;99.90;;;;;;5039126;28;20060;-64
2022/01/21 02:53:09;;;;;;;8.60;1.25;;;2.00;99.90;;;;;;5034673;28;20029;-65
2022/01/21 02:55:35;;;;;;;7.25;1.05;;;2.10;99.90;;;;;;5043275;28;20481;-65
2022/01/21 02:58:01;;;;;;;8.98;1.20;;;2.10;99.90;;;;;;5037711;28;20038;-65
2022/01/21 03:00:27;;;;;;;6.45;0.60;;;2.20;99.90;;;;;;5035875;28;20040;-65
2022/01/21 03:02:53;;;;;;;7.80;0.80;;;2.10;99.90;;;;;;5044075;28;20390;-65
2022/01/21 03:05:19;;;;;;;6.80;1.08;;;2.10;99.90;;;;;;5039687;28;20052;-65
2022/01/21 03:07:46;;;;;;;9.18;1.05;;;2.10;99.90;;;;;;5038446;28;20087;-65
2022/01/21 03:10:13;;;;;;;14.73;1.67;;;2.00;99.90;;;;;;5041225;28;20072;-65
2022/01/21 03:12:39;;;;;;;7.60;1.02;;;2.00;99.90;;;;;;5039078;28;20056;-65
2022/01/21 03:15:06;;;;;;;5.07;1.02;;;1.90;99.90;;;;;;5043792;28;20044;-65
2022/01/21 03:17:32;;;;;;;8.85;1.17;;;1.90;99.90;;;;;;5038293;28;20037;-65
2022/01/21 03:19:58;;;;;;;12.10;1.35;;;1.80;99.90;;;;;;5039545;28;20049;-65
2022/01/21 03:22:23;;;;;;;8.45;1.02;;;1.80;99.90;;;;;;5036749;28;20046;-65
2022/01/21 03:24:49;;;;;;;11.70;0.88;;;1.80;99.90;;;;;;5040382;28;20045;-65
2022/01/21 03:27:16;;;;;;;11.57;1.00;;;1.80;99.90;;;;;;5036939;28;20102;-64
2022/01/21 03:29:42;;;;;;;14.43;1.60;;;1.80;99.90;;;;;;5039257;28;20041;-64
2022/01/21 03:32:08;;;;;;;8.55;1.08;;;1.90;99.90;;;;;;5039820;28;20395;-64
2022/01/21 03:34:34;;;;;;;8.77;1.02;;;1.90;99.90;;;;;;5038075;28;20049;-65
2022/01/21 03:37:00;;;;;;;7.85;1.40;;;1.90;99.90;;;;;;5036468;28;20116;-65
2022/01/21 03:39:26;;;;;;;8.63;1.40;;;1.80;99.90;;;;;;5040238;28;20036;-65
2022/01/21 03:41:51;;;;;;;10.40;1.00;;;1.90;99.90;;;;;;5039759;28;20475;-65
2022/01/21 03:44:17;;;;;;;5.55;0.90;;;1.80;99.90;;;;;;5039109;28;20064;-65
2022/01/21 03:46:43;;;;;;;8.40;0.93;;;1.80;99.90;;;;;;5038311;28;20170;-65
2022/01/21 03:49:09;;;;;;;14.48;1.27;;;1.80;99.90;;;;;;5042063;28;20045;-65
2022/01/21 03:51:35;;;;;;;9.30;0.90;;;1.70;99.90;;;;;;5040296;28;20033;-65
2022/01/21 03:54:01;;;;;;;10.25;1.30;;;1.70;99.90;;;;;;5036842;28;20055;-65
2022/01/21 03:56:27;;;;;;;10.15;1.30;;;1.60;99.90;;;;;;5040117;28;20040;-65
2022/01/21 03:58:53;;;;;;;8.77;1.27;;;1.60;99.90;;;;;;5040752;28;20045;-65
2022/01/21 04:01:20;;;;;;;16.23;1.50;;;1.50;99.90;;;;;;5039132;28;20485;-65
2022/01/21 04:03:46;;;;;;;7.75;1.10;;;1.50;99.90;;;;;;5040876;28;20040;-65
2022/01/21 04:06:12;;;;;;;6.88;1.00;;;1.50;99.90;;;;;;5038779;28;20044;-65
2022/01/21 04:08:38;;;;;;;8.52;1.05;;;1.40;99.90;;;;;;5035718;28;20037;-65
2022/01/21 04:11:03;;;;;;;10.63;1.13;;;1.40;99.90;;;;;;5016150;28;20055;-65
2022/01/21 04:13:30;;;;;;;13.23;1.60;;;1.40;99.90;;;;;;5040858;28;20512;-65
2022/01/21 04:15:57;;;;;;;11.90;1.55;;;1.30;99.90;;;;;;5033765;28;20060;-65
2022/01/21 04:18:23;;;;;;;10.25;1.20;;;1.30;99.90;;;;;;5038248;28;20457;-65
2022/01/21 04:20:50;;;;;;;12.30;1.52;;;1.20;99.90;;;;;;5030246;28;20126;-65
2022/01/21 04:23:17;;;;;;;11.85;1.23;;;1.20;99.90;;;;;;5034104;28;20474;-65
2022/01/21 04:25:43;;;;;;;13.38;1.30;;;1.20;99.90;;;;;;5038364;28;20053;-65
2022/01/21 04:28:09;;;;;;;13.07;1.85;;;1.10;99.90;;;;;;5038859;28;20404;-65
2022/01/21 04:30:37;;;;;;;7.90;1.23;;;1.10;99.90;;;;;;5031250;28;20498;-65
2022/01/21 04:33:03;;;;;;;12.45;2.75;;;1.10;99.90;;;;;;5041729;28;20041;-65
2022/01/21 04:35:30;;;;;;;10.10;1.30;;;1.00;99.90;;;;;;5038448;28;20044;-65
2022/01/21 04:38:00;;;;;;;12.05;1.35;;;1.00;99.90;;;;;;5035111;28;20045;-65
2022/01/21 04:40:32;;;;;;;14.25;1.30;;;1.00;99.90;;;;;;5035128;28;20072;-65
2022/01/21 04:48:40;;;;;;;12.68;1.35;;;1.00;99.90;;;;;;5042940;28;20597;-65
2022/01/21 04:51:25;;;;;;;12.43;1.65;;;0.90;99.90;;;;;;5037147;28;20115;-65
2022/01/21 04:53:50;;;;;;;15.00;1.73;;;1.00;99.90;;;;;;5036623;28;20120;-65
2022/01/21 04:56:17;;;;;;;18.83;1.75;;;0.90;99.90;;;;;;5036672;28;20450;-65
2022/01/21 04:58:44;;;;;;;14.23;2.13;;;0.90;99.90;;;;;;5035891;28;20042;-65
2022/01/21 05:01:10;;;;;;;13.55;1.70;;;0.90;99.90;;;;;;5039759;28;20429;-65
2022/01/21 05:03:38;;;;;;;14.90;2.00;;;0.90;99.90;;;;;;5041840;28;20034;-65
2022/01/21 05:06:04;;;;;;;12.98;1.50;;;0.90;99.90;;;;;;5034196;28;20037;-65
2022/01/21 05:08:39;;;;;;;13.00;1.80;;;0.90;99.90;;;;;;5034225;28;20340;-65
2022/01/21 05:11:06;;;;;;;18.63;2.05;;;1.00;99.90;;;;;;5041525;28;20037;-65
2022/01/21 05:13:38;;;;;;;16.67;1.67;;;1.20;99.90;;;;;;5038601;28;20034;-65
2022/01/21 05:16:09;;;;;;;10.73;1.48;;;1.50;99.90;;;;;;5036505;28;20057;-65
2022/01/21 05:18:35;;;;;;;10.00;1.20;;;1.40;99.90;;;;;;5033603;28;20050;-65
2022/01/21 05:21:01;;;;;;;14.93;1.50;;;1.40;99.90;;;;;;5035955;28;20398;-65
2022/01/21 05:23:27;;;;;;;11.00;1.30;;;1.40;99.90;;;;;;5038844;28;20159;-65
2022/01/21 05:25:53;;;;;;;14.30;1.77;;;1.40;99.90;;;;;;5042262;28;20037;-65
2022/01/21 05:28:19;;;;;;;11.82;1.02;;;1.40;99.90;;;;;;5039142;28;20488;-65
2022/01/21 05:30:45;;;;;;;14.25;1.88;;;1.40;99.90;;;;;;5037387;28;20041;-65
2022/01/21 05:33:11;;;;;;;10.57;1.48;;;1.30;99.90;;;;;;5040357;28;20397;-65
2022/01/21 05:35:36;;;;;;;9.52;1.05;;;1.30;99.90;;;;;;5036132;28;20056;-65
2022/01/21 05:38:02;;;;;;;9.48;0.80;;;1.20;99.90;;;;;;5041042;28;20036;-65
2022/01/21 05:40:28;;;;;;;14.27;1.30;;;1.20;99.90;;;;;;5053934;28;20055;-65
2022/01/21 05:42:54;;;;;;;14.27;1.45;;;1.20;99.90;;;;;;5037138;28;20386;-65
2022/01/21 05:48:04;;;;;;;7.07;1.00;;;1.10;99.90;;;;;;5039732;28;20033;-66
2022/01/21 05:50:29;;;;;;;10.75;1.10;;;1.10;99.90;;;;;;5040753;28;20056;-66
2022/01/21 05:52:56;;;;;;;12.50;1.38;;;1.00;99.90;;;;;;5042446;28;20049;-66
2022/01/21 05:55:22;;;;;;;11.00;1.40;;;1.10;99.90;;;;;;5045550;28;20583;-65
2022/01/21 05:57:48;;;;;;;11.85;1.25;;;1.10;99.90;;;;;;5039578;28;20067;-65
2022/01/21 06:00:14;;;;;;;8.35;1.20;;;1.10;99.90;;;;;;5040969;28;20041;-65
2022/01/21 06:02:40;;;;;;;14.73;1.33;;;1.10;99.90;;;;;;5042758;28;20045;-65
2022/01/21 06:05:06;;;;;;;13.15;1.33;;;1.20;99.90;;;;;;5044986;28;20049;-65
2022/01/21 06:07:32;;;;;;;11.93;1.40;;;1.30;99.90;;;;;;5040788;28;20036;-65
2022/01/21 06:09:58;;;;;;;8.15;1.00;;;1.30;99.90;;;;;;5039270;28;20039;-65
2022/01/21 06:12:23;;;;;;;13.85;1.25;;;1.40;99.90;;;;;;5040079;28;20689;-65
2022/01/21 06:14:49;;;;;;;15.07;1.50;;;1.30;99.90;;;;;;5037489;28;20178;-65
2022/01/21 06:17:15;;;;;;;9.93;1.40;;;1.30;99.90;;;;;;5043622;28;20034;-65
2022/01/21 06:19:41;;;;;;;10.60;1.92;;;1.30;99.90;;;;;;5042755;28;20076;-65
2022/01/21 06:22:07;;;;;;;11.10;1.20;;;1.30;99.90;;;;;;5038635;28;20053;-65
2022/01/21 06:24:33;;;;;;;11.32;1.30;;;1.40;99.90;;;;;;5038608;28;20061;-65
2022/01/21 06:27:02;;;;;;;11.77;1.55;;;1.40;99.90;;;;;;5040814;28;20333;-65
2022/01/21 06:29:28;;;;;;;13.38;1.40;;;1.40;99.90;;;;;;5038939;28;20040;-65
2022/01/21 06:31:53;;;;;;;7.88;1.40;;;1.40;99.90;;;;;;5042378;28;20498;-65
2022/01/21 06:34:19;;;;;;;15.05;1.20;;;1.50;99.90;;;;;;5040651;28;20048;-65
2022/01/21 06:36:45;;;;;;;11.65;0.93;;;1.50;99.90;;;;;;5020999;28;20051;-65
2022/01/21 06:39:11;;;;;;;11.73;1.40;;;1.50;99.90;;;;;;5039634;28;20402;-65
2022/01/21 06:41:37;;;;;;;16.92;1.15;;;1.50;99.90;;;;;;5039128;28;20052;-65
2022/01/21 06:44:04;;;;;;;16.00;1.25;;;1.60;99.90;;;;;;5042709;28;20083;-65
2022/01/21 06:46:29;;;;;;;11.82;1.05;;;1.60;99.90;;;;;;5042439;28;20568;-65
2022/01/21 06:48:55;;;;;;;10.27;1.25;;;1.60;99.90;;;;;;5047244;28;20045;-64
2022/01/21 06:51:21;;;;;;;8.32;0.82;;;1.70;99.90;;;;;;5042072;28;20081;-65
2022/01/21 06:53:47;;;;;;;12.15;0.90;;;1.70;99.90;;;;;;5040221;28;20435;-65
2022/01/21 06:56:13;;;;;;;15.18;1.00;;;1.70;99.90;;;;;;5046509;28;20090;-66
2022/01/21 06:58:39;;;;;;;12.23;0.93;;;1.70;99.90;;;;;;5043412;28;20512;-66
2022/01/21 07:01:05;;;;;;;9.30;1.20;;;1.70;99.90;;;;;;5047487;28;20047;-66
2022/01/21 07:03:31;;;;;;;14.15;1.10;;;1.70;99.90;;;;;;5045925;28;20369;-66
2022/01/21 07:05:56;;;;;;;7.97;1.23;;;1.70;99.90;;;;;;5038797;28;20477;-66
2022/01/21 07:08:22;;;;;;;12.13;1.25;;;1.70;99.90;;;;;;5044464;28;20032;-66
2022/01/21 07:10:48;;;;;;;13.02;1.20;;;1.70;99.90;;;;;;5042888;28;20123;-66
2022/01/21 07:13:14;;;;;;;6.70;0.98;;;1.60;99.90;;;;;;5035893;28;20195;-66
2022/01/21 07:15:40;;;;;;;8.90;1.35;;;1.60;99.90;;;;;;5043357;28;20102;-66
2022/01/21 07:18:06;;;;;;;13.27;1.15;;;1.50;99.90;;;;;;5040875;28;20135;-66
2022/01/21 07:20:32;;;;;;;10.23;1.25;;;1.60;99.90;;;;;;5039619;28;20098;-66
2022/01/21 07:22:58;;;;;;;12.00;1.15;;;1.50;99.90;;;;;;5033012;28;20037;-66
2022/01/21 07:25:23;;;;;;;12.10;1.15;;;1.50;99.90;;;;;;5037956;28;20528;-65
2022/01/21 07:27:49;;;;;;;9.88;1.27;;;1.50;99.90;;;;;;5038963;28;20469;-65
2022/01/21 07:30:16;;;;;;;12.90;1.90;;;1.50;99.90;;;;;;5044511;28;20041;-65
2022/01/21 07:32:43;;;;;;;11.38;1.38;;;1.40;99.90;;;;;;5042401;28;20050;-66
2022/01/21 07:35:10;;;;;;;12.30;1.58;;;1.40;99.90;;;;;;5040219;28;20126;-66
2022/01/21 07:37:36;;;;;;;12.93;1.30;;;1.40;99.90;;;;;;5046234;28;20090;-66
2022/01/21 07:40:03;;;;;;;11.45;2.08;;;1.40;99.90;;;;;;5039862;28;20074;-66
2022/01/21 07:42:29;;;;;;;12.70;1.83;;;1.40;99.90;;;;;;5041182;28;20088;-66
2022/01/21 07:44:55;;;;;;;9.02;1.13;;;1.40;99.90;;;;;;5037305;28;20049;-66
2022/01/21 07:47:21;;;;;;;12.07;1.55;;;1.40;99.90;;;;;;5038722;28;20037;-66
2022/01/21 07:49:48;;;;;;;13.32;1.40;;;1.40;99.90;;;;;;5041073;28;20056;-66
2022/01/21 07:52:15;;;;;;;13.68;1.75;;;1.50;99.90;;;;;;5046237;28;20047;-66
2022/01/21 07:54:41;;;;;;;8.25;1.38;;;1.60;99.90;;;;;;5043432;28;20461;-66
2022/01/21 07:57:07;;;;;;;11.18;1.13;;;1.60;99.90;;;;;;5041515;28;20081;-66
2022/01/21 07:59:32;;;;;;;12.52;1.48;;;1.70;99.90;;;;;;5039384;28;20084;-66
2022/01/21 08:01:58;;;;;;;9.93;1.42;;;1.70;99.90;;;;;;5040979;28;20045;-66
2022/01/21 08:04:24;;;;;;;12.90;1.38;;;1.70;99.90;;;;;;5044610;28;20033;-66
2022/01/21 08:06:50;;;;;;;8.20;1.58;;;1.70;99.90;;;;;;5040984;28;20037;-66
2022/01/21 08:09:16;;;;;;;14.20;1.15;;;1.70;99.90;;;;;;5042161;28;20551;-66
2022/01/21 08:11:42;;;;;;;12.02;1.65;;;1.70;99.90;;;;;;5040709;28;20049;-66
2022/01/21 08:14:07;;;;;;;18.80;8.80;;;1.70;99.90;;;;;;5039722;28;20053;-66
2022/01/21 08:16:35;;;;;;;12.25;2.63;;;1.60;99.90;;;;;;5038999;28;20033;-66
2022/01/21 08:19:03;;;;;;;11.38;1.73;;;1.60;99.90;;;;;;5046535;28;20041;-66
2022/01/21 08:21:29;;;;;;;14.77;1.70;;;1.60;99.90;;;;;;5055248;28;20117;-66
2022/01/21 08:23:55;;;;;;;8.82;1.23;;;1.50;99.90;;;;;;5043591;28;20127;-66
2022/01/21 08:26:24;;;;;;;14.50;1.65;;;1.50;99.90;;;;;;5044881;28;20041;-66
2022/01/21 08:28:52;;;;;;;11.75;2.20;;;1.50;99.90;;;;;;5040477;28;20047;-66
2022/01/21 08:31:17;;;;;;;14.48;1.63;;;1.50;99.90;;;;;;5038971;28;20041;-66
2022/01/21 08:33:44;;;;;;;9.82;1.13;;;1.50;99.90;;;;;;5043667;28;20501;-66
2022/01/21 08:36:10;;;;;;;8.18;1.27;;;1.70;99.90;;;;;;5043332;28;20163;-66
2022/01/21 08:38:38;;;;;;;10.77;1.40;;;1.80;99.90;;;;;;5038565;28;20047;-66
2022/01/21 08:41:03;;;;;;;11.10;1.60;;;2.00;99.90;;;;;;5043253;28;20037;-66
2022/01/21 08:43:30;;;;;;;9.45;1.48;;;2.10;99.90;;;;;;5040926;28;20045;-66
2022/01/21 08:45:55;;;;;;;15.07;2.15;;;2.20;99.90;;;;;;5040906;28;20033;-66
2022/01/21 08:48:21;;;;;;;12.75;2.28;;;2.30;99.90;;;;;;5042885;28;20033;-66
2022/01/21 08:50:47;;;;;;;10.70;2.00;;;2.60;99.90;;;;;;5042823;28;20458;-66
2022/01/21 08:55:57;;;;;;;20.80;2.22;;;3.00;99.90;;;;;;5040594;28;20122;-66
2022/01/21 08:58:24;;;;;;;17.77;2.30;;;3.30;99.90;;;;;;5043645;28;20033;-66
2022/01/21 09:00:50;;;;;;;10.70;1.55;;;3.50;99.90;;;;;;5041233;28;20160;-66
2022/01/21 09:03:16;;;;;;;10.48;1.90;;;3.60;99.90;;;;;;5041131;28;20049;-66
2022/01/21 09:05:48;;;;;;;14.73;2.22;;;3.80;99.90;;;;;;5042374;28;20045;-66
2022/01/21 09:08:18;;;;;;;16.15;2.33;;;4.00;99.90;;;;;;5041280;28;20094;-66
2022/01/21 09:10:44;;;;;;;17.52;2.40;;;4.00;99.90;;;;;;5045379;28;20048;-66
2022/01/21 09:13:10;;;;;;;18.90;2.25;;;3.90;99.90;;;;;;5042430;28;20396;-66
2022/01/21 09:15:37;;;;;;;10.65;2.03;;;3.90;99.90;;;;;;5041503;28;20033;-66
2022/01/21 09:18:05;;;;;;;8.43;1.65;;;3.90;99.90;;;;;;5040708;28;20120;-66
2022/01/21 09:20:35;;;;;;;14.27;2.08;;;3.80;99.90;;;;;;5043288;28;20057;-66
2022/01/21 09:23:01;;;;;;;15.88;2.20;;;3.70;99.90;;;;;;5038443;28;20140;-66
2022/01/21 09:25:27;;;;;;;13.65;2.00;;;3.70;99.90;;;;;;5057079;28;20446;-66
2022/01/21 09:27:53;;;;;;;9.70;2.00;;;3.60;99.90;;;;;;5047069;28;20204;-66
2022/01/21 09:30:19;;;;;;;13.80;1.80;;;3.70;99.90;;;;;;5045629;28;20087;-66
2022/01/21 09:32:45;;;;;;;10.45;1.80;;;3.70;99.90;;;;;;5044623;28;20125;-66
2022/01/21 09:35:11;;;;;;;12.98;1.80;;;3.70;99.90;;;;;;5046982;28;20103;-66
2022/01/21 09:37:37;;;;;;;19.38;2.03;;;3.70;99.90;;;;;;5045677;28;20119;-66
2022/01/21 09:40:05;;;;;;;9.18;1.83;;;3.70;99.90;;;;;;5029588;28;20036;-66
2022/01/21 09:42:36;;;;;;;15.75;2.50;;;3.70;99.90;;;;;;5049307;28;20542;-66
2022/01/21 09:45:08;;;;;;;15.25;2.22;;;3.70;99.90;;;;;;5045260;28;20404;-66
2022/01/21 09:47:49;;;;;;;12.18;2.05;;;3.70;99.90;;;;;;5044285;28;20045;-66
2022/01/21 09:50:18;;;;;;;16.25;2.58;;;3.70;99.90;;;;;;5038596;28;20455;-66
2022/01/21 09:52:48;;;;;;;13.98;1.88;;;3.70;99.90;;;;;;5043246;28;20409;-66
2022/01/21 09:55:17;;;;;;;11.30;2.55;;;3.80;99.90;;;;;;5042720;28;20048;-66
2022/01/21 09:57:47;;;;;;;12.18;1.63;;;3.80;99.90;;;;;;5042518;28;20029;-66
2022/01/21 10:00:13;;;;;;;9.60;1.75;;;3.80;99.90;;;;;;5044883;28;20096;-66
2022/01/21 10:02:40;;;;;;;14.18;1.73;;;3.90;99.90;;;;;;5044862;28;20053;-66
2022/01/21 10:05:06;;;;;;;19.00;1.70;;;4.10;99.90;;;;;;5043884;28;20077;-66
2022/01/21 10:07:34;;;;;;;16.50;1.73;;;4.10;99.90;;;;;;5044312;28;20045;-66
2022/01/21 10:10:06;;;;;;;15.60;1.83;;;4.20;99.90;;;;;;5043369;28;20416;-66
2022/01/21 10:12:32;;;;;;;8.68;1.42;;;4.30;99.90;;;;;;5059049;28;20409;-66
2022/01/21 10:14:58;;;;;;;15.60;1.63;;;4.50;99.90;;;;;;5044588;28;20053;-66
2022/01/21 10:17:23;;;;;;;8.23;1.60;;;4.60;99.90;;;;;;5037372;28;20206;-66
2022/01/21 10:19:51;;;;;;;12.50;1.88;;;4.70;99.90;;;;;;5040977;28;20648;-66
2022/01/21 10:22:25;;;;;;;13.43;2.08;;;4.70;99.90;;;;;;5042870;28;20559;-66
2022/01/21 10:24:59;;;;;;;13.90;1.85;;;4.70;99.90;;;;;;5043557;28;20041;-66
2022/01/21 10:27:26;;;;;;;12.60;1.88;;;4.80;99.90;;;;;;5045862;28;20047;-66
2022/01/21 10:29:52;;;;;;;10.60;1.60;;;4.90;99.90;;;;;;5042882;28;20068;-66
2022/01/21 10:32:35;;;;;;;13.10;1.42;;;5.00;99.90;;;;;;5042707;28;20426;-66
2022/01/21 10:35:01;;;;;;;9.70;1.15;;;5.00;99.90;;;;;;5045363;28;20036;-66
2022/01/21 10:37:31;;;;;;;15.30;1.90;;;5.00;99.90;;;;;;5044715;28;20126;-66
2022/01/21 10:40:03;;;;;;;12.25;1.45;;;4.90;99.90;;;;;;5044186;28;20080;-66
2022/01/21 10:42:29;;;;;;;12.93;1.67;;;5.00;99.90;;;;;;5041137;28;20148;-66
2022/01/21 10:44:56;;;;;;;15.55;1.90;;;5.10;99.90;;;;;;5044626;28;20401;-66
2022/01/21 10:47:36;;;;;;;14.25;2.25;;;5.30;99.90;;;;;;5042494;28;20554;-66
2022/01/21 10:50:07;;;;;;;14.38;2.15;;;5.50;99.90;;;;;;5045944;28;20336;-66
2022/01/21 10:52:35;;;;;;;13.15;2.17;;;5.80;99.90;;;;;;5043245;28;20041;-66
2022/01/21 10:55:02;;;;;;;17.42;2.33;;;5.90;99.90;;;;;;5042406;28;20735;-66
2022/01/21 10:57:30;;;;;;;11.38;1.80;;;6.00;99.90;;;;;;5038803;28;20041;-66
2022/01/21 11:00:12;;;;;;;18.13;2.75;;;5.90;99.90;;;;;;5045203;28;20044;-66
2022/01/21 11:02:54;;;;;;;15.55;2.30;;;5.80;99.90;;;;;;5040283;28;20045;-66
2022/01/21 11:05:27;;;;;;;15.43;2.03;;;5.70;99.90;;;;;;5045067;28;20120;-66
2022/01/21 11:07:55;;;;;;;17.40;2.85;;;5.60;99.90;;;;;;5042079;28;20051;-65
2022/01/21 11:10:36;;;;;;;16.60;2.38;;;5.50;99.90;;;;;;5045083;28;20052;-65
2022/01/21 11:13:19;;;;;;;14.02;2.65;;;5.50;99.90;;;;;;5040229;28;20120;-66
2022/01/21 11:15:53;;;;;;;17.10;2.80;;;5.50;99.90;;;;;;5047056;28;20044;-66
2022/01/21 11:18:20;;;;;;;19.05;2.40;;;5.60;99.90;;;;;;5042751;28;20387;-66
2022/01/21 11:20:49;;;;;;;20.48;2.90;;;5.70;99.90;;;;;;5043927;28;20658;-66
2022/01/21 11:23:17;;;;;;;20.25;2.97;;;5.80;99.90;;;;;;5042018;28;20442;-66
2022/01/21 11:25:56;;;;;;;22.20;2.75;;;5.80;99.90;;;;;;5040259;28;20586;-66
2022/01/21 11:28:23;;;;;;;22.73;2.70;;;5.80;99.90;;;;;;5038019;28;20053;-66
2022/01/21 11:30:50;;;;;;;20.15;1.98;;;5.80;99.90;;;;;;5047524;28;20236;-66
2022/01/21 11:33:16;;;;;;;29.73;3.55;;;5.80;99.90;;;;;;5037474;28;20042;-66
2022/01/21 11:35:44;;;;;;;20.45;2.80;;;5.90;99.90;;;;;;5044457;28;20033;-66
2022/01/21 11:38:12;;;;;;;15.23;2.05;;;5.90;99.90;;;;;;5039001;28;20055;-66
2022/01/21 11:40:40;;;;;;;16.90;2.55;;;5.90;99.90;;;;;;5043084;28;20033;-66
2022/01/21 11:43:07;;;;;;;16.17;2.63;;;5.90;99.90;;;;;;5042134;28;20651;-66
2022/01/21 11:51:33;;;;;;;12.32;2.47;;;6.20;99.90;;;;;;5034667;28;20244;-66
2022/01/21 11:54:01;;;;;;;16.05;2.42;;;6.30;99.90;;;;;;5042854;28;20570;-66
2022/01/21 11:56:34;;;;;;;14.30;1.70;;;6.40;99.90;;;;;;5038376;28;20509;-66
2022/01/21 11:59:12;;;;;;;14.40;1.63;;;6.50;99.90;;;;;;5039306;28;20076;-66
2022/01/21 12:01:46;;;;;;;15.82;1.65;;;6.60;99.90;;;;;;5037394;28;20073;-66
2022/01/21 12:04:12;;;;;;;15.90;1.60;;;6.60;99.90;;;;;;5040880;28;20401;-66
2022/01/21 12:06:37;;;;;;;10.57;1.65;;;6.70;99.90;;;;;;5035026;28;20037;-66
2022/01/21 12:09:05;;;;;;;11.98;2.33;;;6.70;99.90;;;;;;5045253;28;20037;-66
2022/01/21 12:11:37;;;;;;;12.48;1.75;;;6.80;99.90;;;;;;5043242;28;20048;-66
2022/01/21 12:14:33;;;;;;;11.50;1.35;;;6.80;99.90;;;;;;5036004;28;20037;-66
2022/01/21 12:17:13;;;;;;;17.50;2.08;;;6.80;99.90;;;;;;5031096;28;20591;-66
2022/01/21 12:19:40;;;;;;;17.02;3.08;;;6.80;99.90;;;;;;5042428;28;20067;-66
2022/01/21 12:22:18;;;;;;;9.93;1.48;;;6.80;99.90;;;;;;5036732;28;20049;-66
2022/01/21 12:24:54;;;;;;;8.90;1.02;;;6.80;99.90;;;;;;5040635;28;20116;-66
2022/01/21 12:27:23;;;;;;;15.10;1.67;;;6.70;99.90;;;;;;5034383;28;20131;-66
2022/01/21 12:29:49;;;;;;;11.18;1.40;;;6.70;99.90;;;;;;5040352;28;20067;-66
2022/01/21 12:32:23;;;;;;;11.30;1.00;;;6.70;99.90;;;;;;5036746;28;20111;-66
2022/01/21 12:34:59;;;;;;;11.93;1.20;;;6.80;99.90;;;;;;5039254;28;20096;-66
2022/01/21 12:37:37;;;;;;;13.18;1.65;;;6.70;99.90;;;;;;5032235;28;20045;-66
2022/01/21 12:40:03;;;;;;;10.60;1.20;;;6.80;99.90;;;;;;5041945;28;20041;-66
2022/01/21 12:42:35;;;;;;;12.65;2.33;;;6.80;99.90;;;;;;5039285;28;20053;-66
2022/01/21 12:45:03;;;;;;;10.82;1.20;;;6.80;99.90;;;;;;5036459;28;20433;-66
2022/01/21 12:47:46;;;;;;;9.40;1.70;;;6.80;99.90;;;;;;5034417;28;20600;-66
2022/01/21 12:50:18;;;;;;;10.32;1.40;;;6.80;99.90;;;;;;5043360;28;20565;-66
2022/01/21 12:52:56;;;;;;;10.73;1.10;;;6.80;99.90;;;;;;5046234;28;20124;-66
2022/01/21 12:58:06;;;;;;;10.17;1.30;;;6.90;99.90;;;;;;5036670;28;20056;-66
2022/01/21 13:00:32;;;;;;;11.00;1.35;;;6.90;99.90;;;;;;5042587;28;20053;-66
2022/01/21 13:03:05;;;;;;;9.45;1.33;;;6.80;99.90;;;;;;5041023;28;20107;-66
2022/01/21 13:05:42;;;;;;;10.98;1.52;;;6.80;99.90;;;;;;5043601;28;20413;-66
2022/01/21 13:08:16;;;;;;;12.05;1.60;;;6.80;99.90;;;;;;5040655;28;20052;-66
2022/01/21 13:10:42;;;;;;;16.75;1.60;;;6.80;99.90;;;;;;5046004;28;20116;-66
2022/01/21 13:15:56;;;;;;;8.65;1.58;;;6.70;99.90;;;;;;5040729;28;20049;-66
2022/01/21 13:18:25;;;;;;;14.52;2.58;;;6.70;99.90;;;;;;5045888;28;20037;-66
2022/01/21 13:20:56;;;;;;;14.68;2.15;;;6.80;99.90;;;;;;5041651;28;20176;-66
2022/01/21 13:24:15;;;;;;;12.30;1.52;;;6.70;99.90;;;;;;5037429;28;20060;-66
2022/01/21 13:26:36;;;;;;;14.18;2.20;;;6.80;99.90;;;;;;5043671;28;20170;-66
2022/01/21 13:29:12;;;;;;;14.00;1.65;;;6.70;99.90;;;;;;5041016;28;20497;-66
2022/01/21 13:31:47;;;;;;;8.98;1.15;;;6.70;99.90;;;;;;5044149;28;20555;-66
2022/01/21 13:34:15;;;;;;;11.50;1.65;;;6.70;99.90;;;;;;5037739;28;20041;-66
2022/01/21 13:36:52;;;;;;;13.68;1.73;;;6.70;99.90;;;;;;5042571;28;20044;-66
2022/01/21 13:39:25;;;;;;;12.45;1.92;;;6.80;99.90;;;;;;5039093;28;20065;-66
2022/01/21 13:42:05;;;;;;;15.48;3.75;;;6.70;99.90;;;;;;5046659;28;20046;-66
2022/01/21 13:44:35;;;;;;;14.57;1.85;;;6.80;99.90;;;;;;5035317;28;20049;-67
2022/01/21 13:47:21;;;;;;;13.15;2.33;;;6.80;99.90;;;;;;5038410;28;20045;-67
2022/01/21 13:49:47;;;;;;;13.93;2.35;;;6.80;99.90;;;;;;5042663;28;20116;-67
2022/01/21 13:52:13;;;;;;;14.07;2.60;;;6.70;99.90;;;;;;5042988;28;20044;-67
2022/01/21 13:54:48;;;;;;;14.63;2.05;;;6.70;99.90;;;;;;5035330;28;20045;-67
2022/01/21 13:57:15;;;;;;;13.43;1.98;;;6.80;99.90;;;;;;5045808;28;20057;-67
2022/01/21 13:59:43;;;;;;;16.40;2.40;;;6.80;99.90;;;;;;5040182;28;20053;-67
2022/01/21 14:02:15;;;;;;;18.40;2.67;;;6.80;99.90;;;;;;5041330;28;20037;-67